Terminal Aerodrome Forecast
Issued by NWS Dodge City, KS

Home | Current Version | Previous Version | Text Only | Print | Product List | Glossary On
Versions: 1 2 3 4 5 6 7 8 9 10 11 12 13 14 15 16 17 18 19 20 21 22 23 24 25 26 27 28 29 30 31 32 33 34 35 36 37
000
FTUS43 KDDC 241120
TAFDDC
TAF
KDDC 241120Z 2412/2512 13008KT 3SM BR OVC008
     FM241400 17012KT P6SM SCT035
     FM241900 19015KT P6SM VCTS BKN035CB
     FM242300 23012KT P6SM BKN090
     FM250200 34007KT P6SM BKN250=

USA.gov is the U.S. government's official web portal to all federal, state and local government web resources and services.